createdAt,value
2023-08-05T00:02:01.912Z,78.39
2023-08-05T00:04:29.022Z,78.22
2023-08-05T00:06:56.142Z,78.13
2023-08-05T00:09:23.298Z,78.35
2023-08-05T00:11:50.409Z,78.59
2023-08-05T00:14:17.534Z,78.29
2023-08-05T00:16:44.779Z,78.29
2023-08-05T00:19:11.882Z,78.72
2023-08-05T00:21:39.015Z,78.72
2023-08-05T00:24:06.133Z,78.73
2023-08-05T00:26:33.353Z,78.67
2023-08-05T00:29:00.537Z,78.59
2023-08-05T00:31:27.701Z,78.76
2023-08-05T00:33:55.122Z,78.90
2023-08-05T00:36:22.310Z,78.82
2023-08-05T00:38:49.509Z,78.46
2023-08-05T00:41:16.588Z,79.10
2023-08-05T00:43:43.728Z,78.89
2023-08-05T00:46:11.041Z,78.83
2023-08-05T00:48:38.249Z,79.05
2023-08-05T00:51:08.863Z,79.00
2023-08-05T00:53:37.290Z,78.46
2023-08-05T00:56:04.506Z,78.94
2023-08-05T00:58:34.392Z,78.74
2023-08-05T01:01:01.588Z,78.19
2023-08-05T01:03:28.749Z,78.26
2023-08-05T01:05:56.231Z,78.46
2023-08-05T01:08:24.080Z,77.81
2023-08-05T01:10:51.333Z,77.63
2023-08-05T01:13:18.528Z,77.85
2023-08-05T01:15:45.742Z,78.52
2023-08-05T01:18:15.152Z,78.84
2023-08-05T01:20:47.749Z,78.37
2023-08-05T01:23:36.907Z,78.35
2023-08-05T01:26:05.831Z,77.99
2023-08-05T01:28:33.913Z,78.06
2023-08-05T01:31:01.847Z,78.56
2023-08-05T01:33:29.719Z,78.49
2023-08-05T01:35:56.897Z,78.72
2023-08-05T01:38:24.085Z,78.60
2023-08-05T01:40:51.200Z,78.87
2023-08-05T01:43:18.337Z,78.96
2023-08-05T01:45:45.439Z,78.87
2023-08-05T01:48:12.598Z,78.83
2023-08-05T01:50:39.878Z,79.26
2023-08-05T01:53:06.975Z,79.17
2023-08-05T01:55:34.174Z,79.44
2023-08-05T01:58:01.276Z,79.66
2023-08-05T02:00:28.396Z,79.70
2023-08-05T02:02:55.777Z,79.51
2023-08-05T02:05:23.736Z,79.67
2023-08-05T02:07:51.083Z,79.95
2023-08-05T02:10:18.286Z,80.00
2023-08-05T02:12:45.368Z,79.67
2023-08-05T02:15:12.689Z,80.27
2023-08-05T02:17:39.831Z,80.82
2023-08-05T02:20:08.941Z,80.18
2023-08-05T02:22:36.099Z,80.62
2023-08-05T02:25:03.244Z,80.41
2023-08-05T02:27:30.372Z,79.67
2023-08-05T02:29:57.631Z,79.48
2023-08-05T02:32:24.782Z,79.64
2023-08-05T02:34:51.899Z,80.24
2023-08-05T02:37:19.064Z,79.48
2023-08-05T02:39:46.162Z,80.00
2023-08-05T02:42:13.257Z,80.38
2023-08-05T02:44:40.420Z,80.28
2023-08-05T02:47:07.602Z,79.79
2023-08-05T02:49:34.812Z,79.48
2023-08-05T02:52:01.971Z,79.56
2023-08-05T02:54:29.186Z,79.35
2023-08-05T02:56:56.278Z,79.44
2023-08-05T02:59:23.449Z,79.61
2023-08-05T03:01:50.605Z,79.99
2023-08-05T03:04:17.782Z,80.40
2023-08-05T03:06:45.036Z,79.87
2023-08-05T03:09:12.203Z,80.23
2023-08-05T03:11:39.383Z,80.56
2023-08-05T03:14:06.534Z,80.86
2023-08-05T03:16:33.650Z,80.76
2023-08-05T03:19:00.819Z,80.05
2023-08-05T03:21:27.953Z,80.51
2023-08-05T03:23:55.127Z,80.93
2023-08-05T03:26:22.307Z,81.33
2023-08-05T03:28:49.390Z,80.98
2023-08-05T03:31:16.566Z,81.74
2023-08-05T03:33:43.878Z,81.98
2023-08-05T03:36:11.076Z,81.76
2023-08-05T03:38:38.233Z,81.23
2023-08-05T03:41:05.794Z,81.03
2023-08-05T03:43:33.751Z,80.59
2023-08-05T03:46:00.922Z,80.69
2023-08-05T03:48:28.108Z,80.54
2023-08-05T03:50:55.229Z,80.92
2023-08-05T03:53:23.476Z,81.07
2023-08-05T03:55:50.624Z,81.44
2023-08-05T03:58:20.738Z,81.89
2023-08-05T04:00:48.145Z,81.77
2023-08-05T04:03:15.952Z,81.32
2023-08-05T04:05:43.131Z,80.92
2023-08-05T04:08:10.225Z,80.81
2023-08-05T04:10:39.610Z,81.48
2023-08-05T04:13:07.255Z,81.50
2023-08-05T04:15:36.339Z,81.41
2023-08-05T04:18:05.788Z,81.17
2023-08-05T04:20:35.523Z,80.91
2023-08-05T04:23:02.950Z,80.85
2023-08-05T04:25:32.379Z,81.30
2023-08-05T04:27:59.692Z,81.30
2023-08-05T04:30:26.912Z,81.81
2023-08-05T04:32:54.091Z,81.48
2023-08-05T04:35:21.238Z,80.90
2023-08-05T04:37:48.400Z,80.73
2023-08-05T04:40:15.719Z,81.40
2023-08-05T04:42:43.005Z,81.76
2023-08-05T04:45:10.746Z,81.80
2023-08-05T04:47:38.040Z,81.53
2023-08-05T04:50:05.545Z,81.15
2023-08-05T04:52:32.848Z,81.40
2023-08-05T04:55:08.336Z,81.87
2023-08-05T04:57:36.275Z,81.84
2023-08-05T05:00:03.634Z,82.12
2023-08-05T05:02:30.833Z,81.70
2023-08-05T05:04:58.821Z,81.58
2023-08-05T05:07:25.943Z,81.66
2023-08-05T05:09:53.068Z,81.44
2023-08-05T05:12:20.197Z,81.46
2023-08-05T05:14:47.900Z,81.62
2023-08-05T05:17:18.902Z,81.08
2023-08-05T05:19:46.257Z,81.03
2023-08-05T05:22:18.598Z,81.04
2023-08-05T05:24:46.864Z,80.54
2023-08-05T05:27:15.849Z,80.52
2023-08-05T05:29:42.999Z,80.58
2023-08-05T05:32:10.923Z,80.25
2023-08-05T05:34:38.393Z,80.22
2023-08-05T05:37:05.602Z,79.70
2023-08-05T05:39:33.733Z,80.01
2023-08-05T05:42:00.986Z,79.56
2023-08-05T05:44:29.108Z,79.70
2023-08-05T05:46:56.669Z,79.18
2023-08-05T05:49:23.876Z,79.05
2023-08-05T05:51:51.269Z,79.43
2023-08-05T05:54:18.590Z,79.29
2023-08-05T05:56:45.725Z,79.24
2023-08-05T05:59:12.862Z,78.78
2023-08-05T06:01:39.983Z,78.85
2023-08-05T06:04:10.884Z,78.98
2023-08-05T06:06:38.410Z,79.06
2023-08-05T06:09:07.033Z,78.44
2023-08-05T06:11:34.302Z,78.41
2023-08-05T06:14:01.510Z,78.18
2023-08-05T06:16:28.623Z,77.76
2023-08-05T06:18:55.737Z,77.74
2023-08-05T06:21:23.885Z,77.60
2023-08-05T06:23:51.279Z,77.79
2023-08-05T06:26:19.246Z,77.14
2023-08-05T06:28:46.383Z,77.32
2023-08-05T06:31:13.520Z,77.69
2023-08-05T06:33:40.725Z,77.74
2023-08-05T06:36:07.894Z,77.41
2023-08-05T06:38:34.965Z,77.06
2023-08-05T06:41:02.109Z,77.11
2023-08-05T06:43:30.006Z,77.05
2023-08-05T06:45:57.148Z,76.93
2023-08-05T06:48:24.395Z,76.41
2023-08-05T06:50:51.637Z,76.28
2023-08-05T06:53:18.860Z,76.79
2023-08-05T06:55:45.962Z,76.45
2023-08-05T06:58:13.287Z,76.38
2023-08-05T07:00:40.470Z,76.27
2023-08-05T07:03:07.763Z,76.38
2023-08-05T07:05:38.543Z,76.36
2023-08-05T07:08:05.615Z,76.47
2023-08-05T07:10:32.710Z,76.45
2023-08-05T07:13:03.121Z,76.79
2023-08-05T07:15:30.257Z,77.00
2023-08-05T07:17:57.456Z,76.98
2023-08-05T07:20:24.671Z,76.89
2023-08-05T07:22:51.890Z,77.14
2023-08-05T07:25:19.013Z,76.93
2023-08-05T07:27:46.119Z,77.05
2023-08-05T07:30:13.250Z,76.84
2023-08-05T07:32:41.056Z,76.54
2023-08-05T07:35:09.091Z,76.65
2023-08-05T07:37:36.937Z,76.11
2023-08-05T07:40:06.874Z,76.52
2023-08-05T07:42:35.503Z,76.83
2023-08-05T07:45:08.277Z,76.18
2023-08-05T07:47:40.426Z,76.41
2023-08-05T07:50:09.131Z,76.08
2023-08-05T07:52:36.904Z,76.37
2023-08-05T07:55:05.560Z,76.46
2023-08-05T07:57:32.841Z,76.27
2023-08-05T08:00:00.001Z,75.69
2023-08-05T08:02:27.197Z,76.13
2023-08-05T08:04:55.481Z,75.70
2023-08-05T08:07:26.082Z,75.77
2023-08-05T08:09:53.183Z,75.49
2023-08-05T08:12:20.380Z,76.00
2023-08-05T08:14:47.515Z,76.35
2023-08-05T08:17:14.633Z,75.94
2023-08-05T08:19:41.811Z,75.42
2023-08-05T08:22:08.923Z,74.63
2023-08-05T08:24:36.299Z,75.06
2023-08-05T08:27:03.838Z,74.76
2023-08-05T08:29:30.957Z,74.51
2023-08-05T08:31:58.280Z,74.91
2023-08-05T08:34:26.727Z,74.83
2023-08-05T08:36:54.545Z,74.14
2023-08-05T08:39:22.174Z,73.51
2023-08-05T08:41:50.534Z,73.54
2023-08-05T08:44:18.360Z,73.57
2023-08-05T08:46:46.566Z,74.23
2023-08-05T08:49:14.594Z,73.15
2023-08-05T08:51:43.948Z,73.33
2023-08-05T08:54:14.618Z,73.62
2023-08-05T08:56:42.194Z,73.50
2023-08-05T08:59:09.595Z,73.19
2023-08-05T09:01:39.824Z,72.95
2023-08-05T09:04:08.074Z,73.10
2023-08-05T09:06:35.909Z,72.56
2023-08-05T09:09:03.065Z,72.58
2023-08-05T09:11:30.155Z,72.67
2023-08-05T09:13:58.223Z,72.67
2023-08-05T09:16:27.648Z,72.47
2023-08-05T09:18:57.450Z,72.42
2023-08-05T09:21:27.927Z,71.89
2023-08-05T09:23:56.255Z,73.11
2023-08-05T09:26:30.731Z,71.96
2023-08-05T09:29:00.800Z,72.44
2023-08-05T09:31:28.005Z,72.34
2023-08-05T09:33:55.350Z,72.16
2023-08-05T09:36:26.372Z,72.25
2023-08-05T09:39:07.277Z,72.29
2023-08-05T09:41:36.539Z,72.68
2023-08-05T09:44:06.222Z,71.86
2023-08-05T09:46:42.416Z,71.32
2023-08-05T09:49:11.852Z,71.99
2023-08-05T09:51:43.575Z,71.17
2023-08-05T09:54:14.703Z,71.36
2023-08-05T09:56:42.064Z,72.04
2023-08-05T09:59:09.423Z,71.66
2023-08-05T10:01:37.583Z,70.94
2023-08-05T10:04:05.240Z,70.95
2023-08-05T10:06:38.648Z,70.93
2023-08-05T10:09:08.571Z,71.16
2023-08-05T10:11:39.474Z,70.30
2023-08-05T10:14:07.438Z,70.98
2023-08-05T10:16:34.997Z,69.70
2023-08-05T10:19:02.230Z,70.39
2023-08-05T10:21:39.301Z,70.08
2023-08-05T10:24:06.631Z,70.81
2023-08-05T10:26:44.657Z,69.84
2023-08-05T10:29:30.848Z,69.79
2023-08-05T10:32:11.730Z,68.66
2023-08-05T10:34:38.905Z,68.86
2023-08-05T10:37:06.157Z,69.62
2023-08-05T10:39:42.967Z,69.36
2023-08-05T10:42:28.405Z,67.60
2023-08-05T10:44:55.969Z,69.20
2023-08-05T10:47:24.042Z,68.79
2023-08-05T10:49:56.703Z,68.81
2023-08-05T10:52:24.876Z,68.44
2023-08-05T10:54:53.152Z,68.96
2023-08-05T10:57:30.802Z,68.82
2023-08-05T11:00:00.171Z,66.81
2023-08-05T11:02:27.686Z,67.43
2023-08-05T11:05:11.647Z,67.52
2023-08-05T11:07:40.122Z,67.43
2023-08-05T11:10:07.989Z,65.93
2023-08-05T11:12:35.183Z,66.69
2023-08-05T11:15:02.492Z,67.31
2023-08-05T11:17:32.503Z,67.41
2023-08-05T11:20:02.785Z,67.61
2023-08-05T11:22:33.697Z,67.70
2023-08-05T11:25:03.043Z,68.70
2023-08-05T11:27:40.195Z,67.39
2023-08-05T11:30:25.908Z,67.45
2023-08-05T11:32:54.211Z,67.17
2023-08-05T11:35:21.961Z,66.61
2023-08-05T11:37:49.345Z,67.49
2023-08-05T11:40:16.893Z,67.46
2023-08-05T11:42:44.553Z,68.22
2023-08-05T11:45:13.462Z,68.63
2023-08-05T11:47:41.479Z,68.20
2023-08-05T11:50:10.358Z,67.36
2023-08-05T11:52:37.951Z,67.77
2023-08-05T11:55:06.873Z,67.61
2023-08-05T11:57:34.455Z,67.67
2023-08-05T12:00:10.886Z,67.17
2023-08-05T12:02:38.402Z,66.64
2023-08-05T12:05:10.451Z,66.60
2023-08-05T12:07:42.539Z,67.15
2023-08-05T12:10:11.192Z,67.09
2023-08-05T12:12:39.000Z,67.14
2023-08-05T12:15:13.119Z,66.64
2023-08-05T12:17:45.557Z,65.24
2023-08-05T12:20:16.587Z,65.71
2023-08-05T12:22:43.966Z,66.06
2023-08-05T12:25:11.080Z,65.49
2023-08-05T12:27:38.227Z,65.13
2023-08-05T12:30:09.609Z,63.98
2023-08-05T12:32:36.993Z,65.00
2023-08-05T12:35:07.231Z,65.05
2023-08-05T12:37:37.750Z,65.45
2023-08-05T12:40:05.963Z,64.33
2023-08-05T12:42:33.675Z,64.93
2023-08-05T12:45:06.110Z,64.70
2023-08-05T12:47:35.842Z,64.01
2023-08-05T12:50:04.214Z,63.69
2023-08-05T12:52:31.386Z,63.14
2023-08-05T12:54:58.496Z,63.52
2023-08-05T12:57:25.875Z,62.87
2023-08-05T12:59:53.233Z,62.22
2023-08-05T13:02:27.281Z,63.39
2023-08-05T13:05:02.200Z,62.71
2023-08-05T13:07:29.425Z,63.01
2023-08-05T13:09:56.526Z,62.92
2023-08-05T13:12:23.654Z,63.86
2023-08-05T13:14:50.756Z,63.38
2023-08-05T13:17:17.909Z,62.77
2023-08-05T13:19:45.213Z,63.52
2023-08-05T13:22:12.333Z,63.40
2023-08-05T13:24:39.618Z,61.92
2023-08-05T13:27:06.773Z,62.27
2023-08-05T13:29:34.012Z,61.38
2023-08-05T13:32:01.119Z,61.80
2023-08-05T13:34:28.345Z,61.77
2023-08-05T13:36:55.569Z,62.47
2023-08-05T13:39:24.157Z,61.06
2023-08-05T13:41:58.757Z,61.28
2023-08-05T13:44:29.336Z,61.65
2023-08-05T13:46:56.527Z,61.61
2023-08-05T13:49:23.716Z,61.74
2023-08-05T13:51:52.482Z,61.68
2023-08-05T13:54:20.282Z,60.97
2023-08-05T13:56:47.404Z,61.16
2023-08-05T13:59:14.487Z,60.60
2023-08-05T14:01:43.655Z,60.75
2023-08-05T14:04:10.834Z,60.83
2023-08-05T14:06:38.130Z,61.93
2023-08-05T14:09:08.884Z,60.98
2023-08-05T14:11:36.271Z,61.85
2023-08-05T14:14:03.548Z,61.40
2023-08-05T14:16:30.773Z,60.74
2023-08-05T14:18:58.027Z,61.29
2023-08-05T14:21:25.283Z,62.27
2023-08-05T14:23:52.422Z,61.05
2023-08-05T14:26:19.555Z,61.24
2023-08-05T14:28:47.414Z,61.06
2023-08-05T14:31:14.617Z,62.00
2023-08-05T14:33:41.797Z,61.05
2023-08-05T14:36:13.125Z,60.13
2023-08-05T14:38:40.243Z,61.17
2023-08-05T14:41:14.338Z,61.38
2023-08-05T14:43:41.464Z,60.46
2023-08-05T14:46:08.990Z,60.60
2023-08-05T14:48:36.513Z,60.56
2023-08-05T14:51:04.185Z,60.92
2023-08-05T14:53:31.312Z,60.49
2023-08-05T14:55:59.029Z,60.83
2023-08-05T14:58:26.511Z,61.29
2023-08-05T15:00:54.013Z,60.47
2023-08-05T15:03:21.733Z,60.10
2023-08-05T15:05:55.535Z,60.32
2023-08-05T15:08:25.435Z,59.86
2023-08-05T15:11:02.116Z,59.15
2023-08-05T15:13:29.333Z,59.04
2023-08-05T15:15:56.644Z,59.95
2023-08-05T15:18:23.823Z,59.40
2023-08-05T15:20:51.058Z,60.78
2023-08-05T15:23:30.076Z,60.70
2023-08-05T15:25:59.055Z,58.96
2023-08-05T15:28:26.232Z,59.28
2023-08-05T15:30:53.337Z,59.04
2023-08-05T15:33:20.649Z,59.03
2023-08-05T15:35:47.754Z,59.12
2023-08-05T15:38:15.014Z,59.60
2023-08-05T15:40:45.441Z,58.94
2023-08-05T15:43:14.381Z,58.67
2023-08-05T15:45:54.464Z,59.14
2023-08-05T15:48:21.617Z,58.53
2023-08-05T15:50:48.763Z,59.23
2023-08-05T15:53:15.874Z,58.22
2023-08-05T15:55:43.198Z,58.02
2023-08-05T15:58:10.309Z,58.79
2023-08-05T16:00:37.662Z,58.69
2023-08-05T16:03:04.873Z,59.37
2023-08-05T16:05:32.015Z,59.04
2023-08-05T16:07:59.119Z,58.74
2023-08-05T16:10:26.202Z,58.69
2023-08-05T16:12:53.295Z,58.74
2023-08-05T16:15:23.247Z,58.83
2023-08-05T16:17:50.733Z,59.85
2023-08-05T16:20:17.997Z,59.61
2023-08-05T16:22:45.217Z,59.14
2023-08-05T16:25:13.318Z,59.42
2023-08-05T16:27:42.070Z,59.85
2023-08-05T16:30:09.623Z,60.04
2023-08-05T16:32:39.101Z,58.99
2023-08-05T16:35:06.595Z,59.50
2023-08-05T16:37:33.736Z,60.02
2023-08-05T16:40:00.866Z,60.00
2023-08-05T16:42:27.960Z,59.67
2023-08-05T16:44:55.095Z,60.11
2023-08-05T16:47:22.235Z,59.95
2023-08-05T16:49:49.507Z,60.65
2023-08-05T16:52:16.741Z,60.83
2023-08-05T16:54:45.108Z,61.66
2023-08-05T16:57:12.285Z,61.20
2023-08-05T16:59:39.426Z,61.28
2023-08-05T17:02:06.787Z,61.24
2023-08-05T17:04:34.725Z,61.56
2023-08-05T17:07:02.044Z,61.79
2023-08-05T17:09:29.201Z,61.96
2023-08-05T17:11:56.598Z,62.24
2023-08-05T17:14:23.760Z,62.09
2023-08-05T17:16:50.983Z,62.40
2023-08-05T17:19:18.147Z,62.87
2023-08-05T17:21:45.246Z,62.60
2023-08-05T17:24:12.614Z,62.57
2023-08-05T17:26:39.716Z,62.50
2023-08-05T17:29:06.931Z,62.50
2023-08-05T17:31:34.250Z,63.14
2023-08-05T17:34:01.377Z,63.09
2023-08-05T17:36:28.503Z,62.87
2023-08-05T17:38:55.722Z,62.76
2023-08-05T17:41:23.003Z,63.35
2023-08-05T17:43:50.150Z,62.90
2023-08-05T17:46:17.313Z,62.84
2023-08-05T17:48:44.475Z,63.20
2023-08-05T17:51:11.658Z,63.38
2023-08-05T17:53:38.763Z,63.25
2023-08-05T17:56:05.888Z,63.77
2023-08-05T17:58:32.998Z,64.16
2023-08-05T18:01:00.208Z,64.43
2023-08-05T18:03:27.426Z,64.50
2023-08-05T18:06:04.403Z,64.50
2023-08-05T18:08:39.183Z,64.58
2023-08-05T18:11:06.299Z,64.88
2023-08-05T18:13:33.546Z,65.27
2023-08-05T18:16:00.838Z,65.26
2023-08-05T18:18:28.025Z,65.42
2023-08-05T18:20:55.173Z,65.23
2023-08-05T18:23:22.316Z,65.58
2023-08-05T18:25:49.466Z,65.73
2023-08-05T18:28:19.400Z,66.59
2023-08-05T18:30:46.680Z,66.52
2023-08-05T18:33:15.039Z,66.75
2023-08-05T18:35:47.997Z,67.34
2023-08-05T18:38:15.968Z,66.95
2023-08-05T18:40:43.342Z,67.28
2023-08-05T18:43:10.639Z,67.52
2023-08-05T18:45:37.941Z,67.59
2023-08-05T18:48:05.421Z,67.73
2023-08-05T18:50:32.542Z,67.77
2023-08-05T18:52:59.735Z,67.99
2023-08-05T18:55:27.703Z,67.97
2023-08-05T18:57:54.787Z,67.84
2023-08-05T19:00:24.634Z,68.08
2023-08-05T19:02:51.777Z,68.37
2023-08-05T19:05:19.699Z,68.06
2023-08-05T19:07:46.866Z,68.12
2023-08-05T19:10:14.686Z,68.03
2023-08-05T19:12:42.053Z,68.13
2023-08-05T19:15:09.604Z,68.41
2023-08-05T19:17:37.011Z,68.45
2023-08-05T19:20:05.300Z,68.14
2023-08-05T19:22:32.486Z,68.33
2023-08-05T19:25:00.632Z,68.51
2023-08-05T19:27:34.413Z,68.50
2023-08-05T19:30:08.609Z,68.46
2023-08-05T19:32:35.896Z,68.64
2023-08-05T19:35:05.755Z,68.64
2023-08-05T19:37:33.496Z,68.60
2023-08-05T19:40:00.683Z,69.18
2023-08-05T19:42:27.870Z,68.93
2023-08-05T19:44:54.951Z,69.31
2023-08-05T19:47:22.089Z,69.31
2023-08-05T19:49:50.311Z,69.51
2023-08-05T19:52:17.499Z,70.14
2023-08-05T19:54:44.586Z,70.04
2023-08-05T19:57:12.382Z,69.91
2023-08-05T19:59:39.502Z,69.66
2023-08-05T20:02:06.786Z,69.58
2023-08-05T20:04:33.935Z,69.72
2023-08-05T20:07:01.087Z,69.84
2023-08-05T20:09:28.315Z,69.87
2023-08-05T20:11:55.573Z,70.13
2023-08-05T20:14:22.961Z,70.57
2023-08-05T20:16:50.703Z,69.97
2023-08-05T20:19:18.029Z,70.62
2023-08-05T20:21:45.515Z,71.15
2023-08-05T20:24:14.127Z,71.52
2023-08-05T20:26:42.209Z,71.38
2023-08-05T20:29:09.366Z,71.23
2023-08-05T20:31:36.534Z,71.05
2023-08-05T20:34:05.844Z,71.65
2023-08-05T20:36:33.337Z,71.58
2023-08-05T20:39:00.537Z,71.47
2023-08-05T20:41:29.609Z,71.46
2023-08-05T20:43:56.756Z,71.54
2023-08-05T20:46:23.912Z,71.45
2023-08-05T20:48:51.105Z,71.53
2023-08-05T20:51:19.032Z,71.07
2023-08-05T20:53:46.239Z,70.63
2023-08-05T20:56:14.647Z,71.71
2023-08-05T20:58:41.791Z,71.74
2023-08-05T21:01:13.106Z,71.82
2023-08-05T21:03:40.262Z,72.26
2023-08-05T21:06:07.643Z,72.43
2023-08-05T21:08:34.946Z,72.40
2023-08-05T21:11:09.315Z,72.89
2023-08-05T21:13:37.634Z,72.98
2023-08-05T21:16:05.507Z,72.75
2023-08-05T21:18:33.896Z,72.96
2023-08-05T21:21:04.478Z,72.93
2023-08-05T21:23:31.654Z,72.87
2023-08-05T21:25:58.933Z,73.08
2023-08-05T21:28:26.079Z,73.36
2023-08-05T21:31:00.819Z,73.28
2023-08-05T21:33:28.802Z,72.90
2023-08-05T21:35:56.684Z,72.67
2023-08-05T21:38:23.814Z,72.50
2023-08-05T21:40:51.467Z,72.99
2023-08-05T21:43:18.778Z,73.40
2023-08-05T21:45:57.385Z,73.89
2023-08-05T21:48:25.360Z,73.51
2023-08-05T21:50:52.710Z,73.74
2023-08-05T21:53:20.540Z,73.97
2023-08-05T21:55:47.701Z,73.08
2023-08-05T21:58:15.009Z,73.12
2023-08-05T22:00:42.145Z,73.81
2023-08-05T22:03:11.506Z,73.87
2023-08-05T22:05:38.682Z,74.02
2023-08-05T22:08:06.086Z,73.61
2023-08-05T22:10:33.244Z,73.23
2023-08-05T22:13:00.356Z,72.89
2023-08-05T22:15:29.063Z,73.66
2023-08-05T22:17:56.419Z,73.87
2023-08-05T22:20:23.657Z,73.38
2023-08-05T22:22:50.997Z,73.41
2023-08-05T22:25:18.162Z,74.33
2023-08-05T22:27:45.306Z,74.08
2023-08-05T22:30:12.493Z,74.19
2023-08-05T22:32:39.667Z,73.91
2023-08-05T22:35:07.027Z,74.17
2023-08-05T22:37:34.178Z,74.80
2023-08-05T22:40:02.056Z,74.48
2023-08-05T22:42:29.411Z,74.04
2023-08-05T22:44:56.545Z,74.24
2023-08-05T22:47:23.885Z,74.45
2023-08-05T22:49:51.101Z,74.80
2023-08-05T22:52:18.296Z,74.50
2023-08-05T22:54:45.379Z,74.62
2023-08-05T22:57:12.607Z,74.31
2023-08-05T22:59:39.704Z,74.37
2023-08-05T23:02:07.257Z,74.26
2023-08-05T23:04:34.444Z,74.77
2023-08-05T23:07:01.555Z,74.95
2023-08-05T23:09:28.638Z,75.26
2023-08-05T23:11:56.072Z,75.46
2023-08-05T23:14:23.365Z,75.54
2023-08-05T23:16:50.582Z,75.68
2023-08-05T23:19:17.760Z,75.70
2023-08-05T23:21:44.943Z,75.86
2023-08-05T23:24:12.228Z,76.21
2023-08-05T23:26:39.554Z,75.57
2023-08-05T23:29:06.751Z,75.73
2023-08-05T23:31:34.251Z,75.84
2023-08-05T23:34:01.526Z,75.57
2023-08-05T23:36:28.669Z,76.06
2023-08-05T23:38:55.916Z,75.98
2023-08-05T23:41:23.068Z,76.37
2023-08-05T23:43:50.268Z,75.90
2023-08-05T23:46:17.430Z,76.06
2023-08-05T23:48:44.624Z,75.96
2023-08-05T23:51:11.777Z,76.44
2023-08-05T23:53:38.875Z,76.73
2023-08-05T23:56:06.306Z,76.72
2023-08-05T23:58:33.585Z,76.84
